MWI20 FWCL-FWKI
Flight info
| Callsign | MWI20 |
|---|---|
| Flight time | 0h 31m |
| Altitude | 22000 |
| Route | XUBOS1B TETEM TETEM1A |
| Aircraft | B38M/M-SDE1FGHILORVWXY/HB1 |
Departure
| Time | 2026-04-25 16:35 |
|---|---|
| Airport | Chileka International Airport (FWCL) |
Arrival
| Time | 2026-04-25 17:07 |
|---|---|
| Airport | Kamuzu International Airport (FWKI) |
| Time | Latitude | Longitude | Altitude | Speed | Heading |
|---|---|---|---|---|---|
| 2026-04-25 16:32 | -15.68077 | 34.97399 | 2530 ft | 13 kts | 97° |
| 2026-04-25 16:32 | -15.68087 | 34.97480 | 2541 ft | 9 kts | 98° |
| 2026-04-25 16:32 | -15.68066 | 34.97529 | 2538 ft | 8 kts | 2° |
| 2026-04-25 16:32 | -15.67998 | 34.97476 | 2533 ft | 17 kts | 319° |
| 2026-04-25 16:33 | -15.67916 | 34.97503 | 2525 ft | 16 kts | 90° |
| 2026-04-25 16:33 | -15.67927 | 34.97617 | 2529 ft | 16 kts | 98° |
| 2026-04-25 16:33 | -15.67941 | 34.97729 | 2527 ft | 16 kts | 97° |
| 2026-04-25 16:33 | -15.67956 | 34.97872 | 2540 ft | 13 kts | 95° |
| 2026-04-25 16:34 | -15.67942 | 34.97962 | 2533 ft | 12 kts | 73° |
| 2026-04-25 16:34 | -15.67974 | 34.98000 | 2545 ft | 4 kts | 217° |
| 2026-04-25 16:34 | -15.67972 | 34.97971 | 2544 ft | 15 kts | 279° |
| 2026-04-25 16:34 | -15.67923 | 34.97541 | 2516 ft | 102 kts | 275° |
| 2026-04-25 16:35 | -15.67817 | 34.96548 | 2499 ft | 172 kts | 276° |
| 2026-04-25 16:35 | -15.67648 | 34.95266 | 2705 ft | 182 kts | 278° |
| 2026-04-25 16:35 | -15.67500 | 34.93880 | 3152 ft | 204 kts | 269° |
| 2026-04-25 16:35 | -15.67335 | 34.92314 | 3561 ft | 228 kts | 279° |
| 2026-04-25 16:36 | -15.66594 | 34.90950 | 4666 ft | 220 kts | 315° |
| 2026-04-25 16:36 | -15.66184 | 34.90605 | 4865 ft | 229 kts | 323° |
| 2026-04-25 16:36 | -15.63700 | 34.88979 | 5520 ft | 277 kts | 330° |
| 2026-04-25 16:36 | -15.62082 | 34.88090 | 5807 ft | 247 kts | 334° |
| 2026-04-25 16:37 | -15.60538 | 34.87366 | 6082 ft | 243 kts | 338° |
| 2026-04-25 16:37 | -15.59006 | 34.86611 | 5860 ft | 244 kts | 333° |
| 2026-04-25 16:37 | -15.57500 | 34.85818 | 5534 ft | 240 kts | 332° |
| 2026-04-25 16:37 | -15.56072 | 34.84942 | 5813 ft | 239 kts | 329° |
| 2026-04-25 16:38 | -15.54627 | 34.84044 | 5962 ft | 248 kts | 329° |
| 2026-04-25 16:38 | -15.53098 | 34.83104 | 6009 ft | 262 kts | 330° |
| 2026-04-25 16:38 | -15.51498 | 34.82131 | 6033 ft | 272 kts | 329° |
| 2026-04-25 16:38 | -15.49822 | 34.81119 | 6150 ft | 284 kts | 330° |
| 2026-04-25 16:39 | -15.48093 | 34.80081 | 6278 ft | 289 kts | 330° |
| 2026-04-25 16:39 | -15.46348 | 34.79037 | 7061 ft | 287 kts | 330° |
| 2026-04-25 16:39 | -15.44636 | 34.78015 | 8095 ft | 289 kts | 330° |
| 2026-04-25 16:39 | -15.42884 | 34.76969 | 9172 ft | 290 kts | 329° |
| 2026-04-25 16:40 | -15.41124 | 34.75920 | 10240 ft | 292 kts | 329° |
| 2026-04-25 16:40 | -15.39311 | 34.74841 | 10849 ft | 309 kts | 330° |
| 2026-04-25 16:40 | -15.37393 | 34.73692 | 11400 ft | 325 kts | 329° |
| 2026-04-25 16:40 | -15.35403 | 34.72499 | 12088 ft | 334 kts | 330° |
| 2026-04-25 16:41 | -15.33407 | 34.71302 | 12951 ft | 337 kts | 330° |
| 2026-04-25 16:41 | -15.32048 | 34.70488 | 13489 ft | 341 kts | 330° |
| 2026-04-25 16:41 | -15.27208 | 34.67586 | 15197 ft | 349 kts | 331° |
| 2026-04-25 16:42 | -15.25097 | 34.66322 | 15924 ft | 351 kts | 330° |
| 2026-04-25 16:42 | -15.22962 | 34.65043 | 16628 ft | 354 kts | 332° |
| 2026-04-25 16:42 | -15.20847 | 34.63777 | 17288 ft | 357 kts | 332° |
| 2026-04-25 16:42 | -15.18675 | 34.62477 | 17943 ft | 360 kts | 332° |
| 2026-04-25 16:43 | -15.16483 | 34.61164 | 18547 ft | 364 kts | 332° |
| 2026-04-25 16:43 | -15.14307 | 34.59862 | 19100 ft | 366 kts | 332° |
| 2026-04-25 16:43 | -15.12087 | 34.58534 | 19663 ft | 368 kts | 332° |
| 2026-04-25 16:43 | -15.09854 | 34.57199 | 20185 ft | 372 kts | 331° |
| 2026-04-25 16:44 | -15.07594 | 34.55848 | 20682 ft | 376 kts | 331° |
| 2026-04-25 16:44 | -15.05338 | 34.54499 | 21202 ft | 378 kts | 331° |
| 2026-04-25 16:44 | -15.03044 | 34.53128 | 21730 ft | 381 kts | 332° |
| 2026-04-25 16:44 | -15.00729 | 34.51745 | 22084 ft | 387 kts | 331° |
| 2026-04-25 16:45 | -14.98382 | 34.50344 | 22139 ft | 391 kts | 330° |
| 2026-04-25 16:45 | -14.96018 | 34.48931 | 22162 ft | 393 kts | 331° |
| 2026-04-25 16:45 | -14.93644 | 34.47514 | 22176 ft | 393 kts | 331° |
| 2026-04-25 16:45 | -14.91308 | 34.46120 | 22175 ft | 392 kts | 331° |
| 2026-04-25 16:46 | -14.88940 | 34.44707 | 22172 ft | 393 kts | 331° |
| 2026-04-25 16:46 | -14.86562 | 34.43289 | 22169 ft | 393 kts | 331° |
| 2026-04-25 16:46 | -14.84192 | 34.41875 | 22181 ft | 393 kts | 330° |
| 2026-04-25 16:46 | -14.83424 | 34.41417 | 22176 ft | 393 kts | 331° |
| 2026-04-25 16:47 | -14.79455 | 34.39051 | 22175 ft | 392 kts | 330° |
| 2026-04-25 16:47 | -14.77087 | 34.37640 | 22177 ft | 393 kts | 331° |
| 2026-04-25 16:47 | -14.74739 | 34.36241 | 22179 ft | 394 kts | 331° |
| 2026-04-25 16:47 | -14.72370 | 34.34795 | 22172 ft | 394 kts | 326° |
| 2026-04-25 16:48 | -14.70361 | 34.32874 | 22195 ft | 395 kts | 314° |
| 2026-04-25 16:48 | -14.68468 | 34.30802 | 22168 ft | 395 kts | 315° |
| 2026-04-25 16:48 | -14.66576 | 34.28736 | 22177 ft | 396 kts | 315° |
| 2026-04-25 16:48 | -14.64707 | 34.26679 | 22180 ft | 396 kts | 314° |
| 2026-04-25 16:49 | -14.62819 | 34.24597 | 22178 ft | 396 kts | 314° |
| 2026-04-25 16:49 | -14.60933 | 34.22512 | 22178 ft | 396 kts | 314° |
| 2026-04-25 16:49 | -14.59048 | 34.20428 | 22177 ft | 397 kts | 314° |
| 2026-04-25 16:49 | -14.57199 | 34.18387 | 22181 ft | 387 kts | 315° |
| 2026-04-25 16:50 | -14.55390 | 34.16388 | 22109 ft | 374 kts | 314° |
| 2026-04-25 16:50 | -14.53629 | 34.14444 | 21920 ft | 366 kts | 315° |
| 2026-04-25 16:50 | -14.51886 | 34.12520 | 21529 ft | 365 kts | 315° |
| 2026-04-25 16:50 | -14.50174 | 34.10630 | 21171 ft | 362 kts | 314° |
| 2026-04-25 16:51 | -14.48448 | 34.08727 | 20801 ft | 361 kts | 315° |
| 2026-04-25 16:51 | -14.46755 | 34.06859 | 20439 ft | 359 kts | 315° |
| 2026-04-25 16:51 | -14.45050 | 34.04980 | 20074 ft | 357 kts | 315° |
| 2026-04-25 16:51 | -14.44478 | 34.04349 | 19953 ft | 357 kts | 314° |
| 2026-04-25 16:52 | -14.41662 | 34.01246 | 19349 ft | 355 kts | 315° |
| 2026-04-25 16:52 | -14.39973 | 33.99384 | 18986 ft | 353 kts | 315° |
| 2026-04-25 16:52 | -14.38294 | 33.97535 | 18626 ft | 352 kts | 315° |
| 2026-04-25 16:52 | -14.36643 | 33.95715 | 18241 ft | 352 kts | 315° |
| 2026-04-25 16:53 | -14.33311 | 33.92047 | 17479 ft | 348 kts | 315° |
| 2026-04-25 16:53 | -14.31656 | 33.90224 | 17124 ft | 346 kts | 314° |
| 2026-04-25 16:53 | -14.30017 | 33.88421 | 16768 ft | 344 kts | 314° |
| 2026-04-25 16:54 | -14.28386 | 33.86627 | 16416 ft | 341 kts | 314° |
| 2026-04-25 16:54 | -14.26764 | 33.84843 | 16061 ft | 339 kts | 314° |
| 2026-04-25 16:54 | -14.25152 | 33.83070 | 15711 ft | 338 kts | 314° |
| 2026-04-25 16:54 | -14.23566 | 33.81327 | 15371 ft | 336 kts | 314° |
| 2026-04-25 16:55 | -14.21970 | 33.79572 | 15022 ft | 334 kts | 314° |
| 2026-04-25 16:55 | -14.20378 | 33.77823 | 14677 ft | 332 kts | 314° |
| 2026-04-25 16:55 | -14.18801 | 33.76090 | 14336 ft | 331 kts | 314° |
| 2026-04-25 16:55 | -14.17247 | 33.74382 | 14012 ft | 329 kts | 314° |
| 2026-04-25 16:56 | -14.15677 | 33.72660 | 13620 ft | 328 kts | 314° |
| 2026-04-25 16:56 | -14.14115 | 33.70943 | 13237 ft | 327 kts | 314° |
| 2026-04-25 16:56 | -14.12559 | 33.69236 | 12899 ft | 323 kts | 314° |
| 2026-04-25 16:56 | -14.10928 | 33.67723 | 12520 ft | 321 kts | 329° |
| 2026-04-25 16:57 | -14.08843 | 33.66869 | 12149 ft | 319 kts | 343° |
| 2026-04-25 16:57 | -14.08127 | 33.66646 | 12046 ft | 318 kts | 343° |
| 2026-04-25 16:57 | -14.04645 | 33.65524 | 11522 ft | 313 kts | 343° |
| 2026-04-25 16:57 | -14.02564 | 33.64861 | 11193 ft | 311 kts | 343° |
| 2026-04-25 16:58 | -14.00529 | 33.64217 | 10870 ft | 310 kts | 343° |
| 2026-04-25 16:58 | -13.98467 | 33.63565 | 10552 ft | 308 kts | 344° |
| 2026-04-25 16:58 | -13.96429 | 33.62922 | 10364 ft | 302 kts | 343° |
| 2026-04-25 16:58 | -13.94440 | 33.62294 | 10214 ft | 296 kts | 343° |
| 2026-04-25 16:59 | -13.92498 | 33.61682 | 9902 ft | 294 kts | 344° |
| 2026-04-25 16:59 | -13.90544 | 33.61065 | 9544 ft | 292 kts | 343° |
| 2026-04-25 16:59 | -13.88612 | 33.60456 | 9210 ft | 287 kts | 343° |
| 2026-04-25 16:59 | -13.86722 | 33.59859 | 8903 ft | 281 kts | 343° |
| 2026-04-25 17:00 | -13.85491 | 33.59472 | 8726 ft | 275 kts | 343° |
| 2026-04-25 17:00 | -13.83106 | 33.58720 | 8382 ft | 263 kts | 343° |
| 2026-04-25 17:00 | -13.81388 | 33.58179 | 8196 ft | 251 kts | 343° |
| 2026-04-25 17:00 | -13.79778 | 33.57671 | 8062 ft | 238 kts | 343° |
| 2026-04-25 17:01 | -13.78243 | 33.57187 | 7984 ft | 216 kts | 343° |
| 2026-04-25 17:01 | -13.76852 | 33.56794 | 7851 ft | 207 kts | 354° |
| 2026-04-25 17:01 | -13.75433 | 33.56964 | 7714 ft | 207 kts | 23° |
| 2026-04-25 17:01 | -13.74246 | 33.57788 | 7641 ft | 206 kts | 50° |
| 2026-04-25 17:02 | -13.73527 | 33.59018 | 7399 ft | 200 kts | 73° |
| 2026-04-25 17:02 | -13.73174 | 33.60365 | 7175 ft | 190 kts | 78° |
| 2026-04-25 17:02 | -13.72875 | 33.61673 | 6918 ft | 183 kts | 80° |
| 2026-04-25 17:02 | -13.72607 | 33.62937 | 6716 ft | 180 kts | 81° |
| 2026-04-25 17:03 | -13.72353 | 33.64198 | 6538 ft | 180 kts | 81° |
| 2026-04-25 17:03 | -13.72109 | 33.65455 | 6337 ft | 178 kts | 81° |
| 2026-04-25 17:03 | -13.71870 | 33.66699 | 6148 ft | 177 kts | 82° |
| 2026-04-25 17:03 | -13.71650 | 33.67939 | 5978 ft | 175 kts | 88° |
| 2026-04-25 17:04 | -13.71864 | 33.69125 | 5807 ft | 171 kts | 114° |
| 2026-04-25 17:04 | -13.72465 | 33.70179 | 5724 ft | 168 kts | 127° |
| 2026-04-25 17:04 | -13.73189 | 33.71056 | 5544 ft | 154 kts | 130° |
| 2026-04-25 17:04 | -13.73871 | 33.71873 | 5323 ft | 147 kts | 128° |
| 2026-04-25 17:05 | -13.74516 | 33.72671 | 5148 ft | 146 kts | 128° |
| 2026-04-25 17:05 | -13.75846 | 33.74291 | 4727 ft | 150 kts | 128° |
| 2026-04-25 17:05 | -13.76499 | 33.75100 | 4417 ft | 147 kts | 128° |
| 2026-04-25 17:06 | -13.77151 | 33.75889 | 4256 ft | 138 kts | 130° |
| 2026-04-25 17:06 | -13.77724 | 33.76620 | 4086 ft | 129 kts | 129° |
| 2026-04-25 17:06 | -13.78270 | 33.77301 | 4030 ft | 103 kts | 132° |
| 2026-04-25 17:06 | -13.78623 | 33.77716 | 4034 ft | 61 kts | 129° |
| 2026-04-25 17:07 | -13.78851 | 33.77996 | 4030 ft | 39 kts | 130° |
| 2026-04-25 17:07 | -13.78939 | 33.78153 | 4029 ft | 16 kts | 59° |
| 2026-04-25 17:07 | -13.78859 | 33.78216 | 4030 ft | 14 kts | 38° |
| 2026-04-25 17:07 | -13.78786 | 33.78208 | 4031 ft | 12 kts | 309° |
| 2026-04-25 17:08 | -13.78729 | 33.78135 | 4032 ft | 13 kts | 309° |
| 2026-04-25 17:08 | -13.78672 | 33.78063 | 4034 ft | 14 kts | 309° |
| 2026-04-25 17:08 | -13.78590 | 33.77958 | 4034 ft | 24 kts | 309° |
| 2026-04-25 17:08 | -13.78469 | 33.77818 | 4035 ft | 27 kts | 308° |
| 2026-04-25 17:09 | -13.78360 | 33.77677 | 4032 ft | 17 kts | 310° |
| 2026-04-25 17:09 | -13.78286 | 33.77629 | 4031 ft | 14 kts | 8° |
| 2026-04-25 17:09 | -13.78208 | 33.77675 | 4034 ft | 13 kts | 36° |
| 2026-04-25 17:09 | -13.78139 | 33.77731 | 4034 ft | 12 kts | 46° |
| 2026-04-25 17:10 | -13.78151 | 33.77780 | 4035 ft | 6 kts | 141° |
| 2026-04-25 17:10 | -13.78179 | 33.77814 | 4035 ft | 5 kts | 128° |
| 2026-04-25 17:10 | -13.78182 | 33.77818 | 4035 ft | 0 kts | 128° |